McHenry, IL (60051)

2:34 PM CST en Diciembre 22, 2014 (GMT -0600)
Glacier Ridge - West Side | Change Station
CLOSE
Current Station
Estación meteorológica personal
Location: McHenry, IL
Altura: 925 ft
Estaciones meteorológicas cercanas

Alt 925 ft 42.35 °N, 88.33 °W | Updated 1 minute ago

Lluvia
Lluvia
34.5 ° F
Sensación térmica 32 ° F
N
3.1
Viento Variable Viento desde NE
Gusts 3.1 mph

Hoy
Alta -- | Baja -- ° F
--% Posibilidad de precipitaciones
Ayer
Alta -- | Baja -- ° F
Precip. -- pul
7:19 AM 4:24 PM
Luna nueva, 1% visible
Presión 29.78 pul
Visibilidad 2.0 Millas
Nubes Nublado 600 ft
Vientos helados 32 ° F
Punto de rocío 30 ° F
Humedad 84%
Precipitaciones 0.00 pul
Espesor de la nieve No disponible.
UV 0 de una escala de 12
Polen .10 de una escala de 12
Calidad del aire No disponible.
Flu Activity No disponible.
METAR KUGN 221955Z 10010KT 2SM -RA BR OVC006 02/01 A2975 RMK AO2 CIG 004V010 SLP083 P0003 T00170006

More Conditions Fewer Conditions

Presión 29.78 pul
Visibilidad 2.0 Millas
Nubes Nublado 600 ft
Vientos helados 32 ° F
Punto de rocío 30 ° F
Humedad 84%
Precipitaciones 0.00 pul
Espesor de la nieve No disponible.
UV 0 de una escala de 12
Polen .10 de una escala de 12
Calidad del aire No disponible.
Flu Activity No disponible.
METAR KUGN 221955Z 10010KT 2SM -RA BR OVC006 02/01 A2975 RMK AO2 CIG 004V010 SLP083 P0003 T00170006

More Conditions Fewer Conditions

10-Day Weather Forecast

Almanac

Astronomía

Dec. 22, 2014 Salida Puesta
Hora real
Crepúsculo civil
Crepúsculo náutico
Crepúsculo astronómico
Luna
Horas de luz
Horas de luz
Tomorrow will be .
, % of the Moon is Illuminated

Extremos de hoy

Máximos del estado Bajos del estado

Community

WunderPhotos

Upload Photos

1,779,680 ¡fotos cargadas!

WunderBlogs® & News

Nearby

Calidad del aire

  Calidad del aire Índice AQ Contaminante
Not available.

Grosos de nieve

Estación Profundido Altura

Actividad de terremotos

Ciudad Distance Mag. Tiempo y dato
Magnitud mínima muestra es 2,5.

Temperaturas de aguas costeras

Lugar Temperatura

Estaciones meteorológicas cercanas